sensor_id;sensor_type;location;lat;lon;timestamp;P1;durP1;ratioP1;P2;durP2;ratioP2
22634;SDS011;11484;50.858;4.384;2022-10-23T00:01:00;5.78;;;2.35;;
22634;SDS011;11484;50.858;4.384;2022-10-23T00:04:06;4.50;;;2.50;;
22634;SDS011;11484;50.858;4.384;2022-10-23T00:06:39;4.18;;;2.10;;
22634;SDS011;11484;50.858;4.384;2022-10-23T00:09:05;5.00;;;2.30;;
22634;SDS011;11484;50.858;4.384;2022-10-23T00:11:33;7.03;;;2.20;;
22634;SDS011;11484;50.858;4.384;2022-10-23T00:13:59;6.88;;;2.05;;
22634;SDS011;11484;50.858;4.384;2022-10-23T00:16:26;4.68;;;1.98;;
22634;SDS011;11484;50.858;4.384;2022-10-23T00:18:52;4.97;;;1.70;;
22634;SDS011;11484;50.858;4.384;2022-10-23T00:21:18;4.90;;;1.73;;
22634;SDS011;11484;50.858;4.384;2022-10-23T00:23:44;8.88;;;2.20;;
22634;SDS011;11484;50.858;4.384;2022-10-23T00:26:12;4.18;;;1.80;;
22634;SDS011;11484;50.858;4.384;2022-10-23T00:28:41;6.32;;;1.85;;
22634;SDS011;11484;50.858;4.384;2022-10-23T00:31:08;4.35;;;1.92;;
22634;SDS011;11484;50.858;4.384;2022-10-23T00:33:34;8.80;;;1.95;;
22634;SDS011;11484;50.858;4.384;2022-10-23T00:36:02;5.70;;;2.15;;
22634;SDS011;11484;50.858;4.384;2022-10-23T00:38:29;3.83;;;1.60;;
22634;SDS011;11484;50.858;4.384;2022-10-23T00:40:55;7.13;;;3.40;;
22634;SDS011;11484;50.858;4.384;2022-10-23T00:43:22;10.23;;;3.80;;
22634;SDS011;11484;50.858;4.384;2022-10-23T00:45:50;7.07;;;2.17;;
22634;SDS011;11484;50.858;4.384;2022-10-23T00:48:16;7.10;;;2.72;;
22634;SDS011;11484;50.858;4.384;2022-10-23T00:50:42;4.05;;;1.65;;
22634;SDS011;11484;50.858;4.384;2022-10-23T00:53:10;3.97;;;1.98;;
22634;SDS011;11484;50.858;4.384;2022-10-23T00:55:38;5.75;;;1.83;;
22634;SDS011;11484;50.858;4.384;2022-10-23T00:58:10;5.25;;;1.83;;
22634;SDS011;11484;50.858;4.384;2022-10-23T01:00:48;7.60;;;2.00;;
22634;SDS011;11484;50.858;4.384;2022-10-23T01:03:19;7.35;;;2.03;;
22634;SDS011;11484;50.858;4.384;2022-10-23T01:05:51;6.05;;;2.00;;
22634;SDS011;11484;50.858;4.384;2022-10-23T01:08:28;4.40;;;1.80;;
22634;SDS011;11484;50.858;4.384;2022-10-23T01:11:05;5.57;;;2.03;;
22634;SDS011;11484;50.858;4.384;2022-10-23T01:24:55;3.90;;;1.60;;
22634;SDS011;11484;50.858;4.384;2022-10-23T01:27:27;5.10;;;2.05;;
22634;SDS011;11484;50.858;4.384;2022-10-23T01:30:02;6.57;;;1.80;;
22634;SDS011;11484;50.858;4.384;2022-10-23T01:32:34;7.00;;;2.05;;
22634;SDS011;11484;50.858;4.384;2022-10-23T01:38:27;6.93;;;2.13;;
22634;SDS011;11484;50.858;4.384;2022-10-23T01:41:20;3.33;;;1.92;;
22634;SDS011;11484;50.858;4.384;2022-10-23T01:46:23;4.93;;;1.90;;
22634;SDS011;11484;50.858;4.384;2022-10-23T01:48:52;4.72;;;2.10;;
22634;SDS011;11484;50.858;4.384;2022-10-23T01:51:21;4.05;;;1.92;;
22634;SDS011;11484;50.858;4.384;2022-10-23T01:53:49;4.60;;;1.83;;
22634;SDS011;11484;50.858;4.384;2022-10-23T01:56:21;4.17;;;1.90;;
22634;SDS011;11484;50.858;4.384;2022-10-23T01:58:51;4.18;;;1.80;;
22634;SDS011;11484;50.858;4.384;2022-10-23T02:01:20;3.20;;;1.90;;
22634;SDS011;11484;50.858;4.384;2022-10-23T02:03:49;5.55;;;2.20;;
22634;SDS011;11484;50.858;4.384;2022-10-23T02:06:17;8.60;;;1.95;;
22634;SDS011;11484;50.858;4.384;2022-10-23T02:08:43;4.85;;;1.90;;
22634;SDS011;11484;50.858;4.384;2022-10-23T02:11:09;4.13;;;2.10;;
22634;SDS011;11484;50.858;4.384;2022-10-23T02:19:16;4.65;;;1.70;;
22634;SDS011;11484;50.858;4.384;2022-10-23T02:22:08;6.05;;;2.03;;
22634;SDS011;11484;50.858;4.384;2022-10-23T02:24:43;8.25;;;1.90;;
22634;SDS011;11484;50.858;4.384;2022-10-23T02:27:16;4.60;;;1.83;;
22634;SDS011;11484;50.858;4.384;2022-10-23T02:30:04;5.00;;;1.80;;
22634;SDS011;11484;50.858;4.384;2022-10-23T02:32:32;7.40;;;2.00;;
22634;SDS011;11484;50.858;4.384;2022-10-23T02:35:00;4.38;;;1.80;;
22634;SDS011;11484;50.858;4.384;2022-10-23T02:37:25;3.70;;;1.70;;
22634;SDS011;11484;50.858;4.384;2022-10-23T02:39:51;5.28;;;1.75;;
22634;SDS011;11484;50.858;4.384;2022-10-23T02:42:23;4.75;;;1.90;;
22634;SDS011;11484;50.858;4.384;2022-10-23T02:44:58;4.13;;;2.00;;
22634;SDS011;11484;50.858;4.384;2022-10-23T02:47:38;4.53;;;1.80;;
22634;SDS011;11484;50.858;4.384;2022-10-23T02:50:28;3.92;;;1.77;;
22634;SDS011;11484;50.858;4.384;2022-10-23T03:01:13;3.90;;;2.08;;
22634;SDS011;11484;50.858;4.384;2022-10-23T03:03:48;3.15;;;1.80;;
22634;SDS011;11484;50.858;4.384;2022-10-23T03:06:17;3.30;;;1.70;;
22634;SDS011;11484;50.858;4.384;2022-10-23T03:08:44;4.35;;;1.52;;
22634;SDS011;11484;50.858;4.384;2022-10-23T03:11:22;6.15;;;2.45;;
22634;SDS011;11484;50.858;4.384;2022-10-23T03:13:48;6.13;;;2.00;;
22634;SDS011;11484;50.858;4.384;2022-10-23T03:16:13;4.22;;;1.60;;
22634;SDS011;11484;50.858;4.384;2022-10-23T03:18:39;6.18;;;1.80;;
22634;SDS011;11484;50.858;4.384;2022-10-23T03:21:05;3.00;;;1.90;;
22634;SDS011;11484;50.858;4.384;2022-10-23T03:23:31;6.78;;;2.15;;
22634;SDS011;11484;50.858;4.384;2022-10-23T03:25:56;5.47;;;1.90;;
22634;SDS011;11484;50.858;4.384;2022-10-23T03:28:22;3.20;;;1.90;;
22634;SDS011;11484;50.858;4.384;2022-10-23T03:30:48;4.78;;;1.73;;
22634;SDS011;11484;50.858;4.384;2022-10-23T03:33:13;5.22;;;2.33;;
22634;SDS011;11484;50.858;4.384;2022-10-23T03:35:39;2.55;;;1.40;;
22634;SDS011;11484;50.858;4.384;2022-10-23T03:38:05;7.30;;;1.88;;
22634;SDS011;11484;50.858;4.384;2022-10-23T03:40:31;4.53;;;1.92;;
22634;SDS011;11484;50.858;4.384;2022-10-23T03:42:57;6.85;;;2.05;;
22634;SDS011;11484;50.858;4.384;2022-10-23T03:45:22;2.60;;;1.50;;
22634;SDS011;11484;50.858;4.384;2022-10-23T03:47:48;5.45;;;1.70;;
22634;SDS011;11484;50.858;4.384;2022-10-23T03:50:16;3.75;;;1.85;;
22634;SDS011;11484;50.858;4.384;2022-10-23T03:52:42;4.03;;;2.10;;
22634;SDS011;11484;50.858;4.384;2022-10-23T03:55:08;7.95;;;1.63;;
22634;SDS011;11484;50.858;4.384;2022-10-23T03:57:34;6.00;;;1.67;;
22634;SDS011;11484;50.858;4.384;2022-10-23T04:00:00;3.90;;;1.67;;
22634;SDS011;11484;50.858;4.384;2022-10-23T04:02:25;7.25;;;1.90;;
22634;SDS011;11484;50.858;4.384;2022-10-23T04:04:51;3.80;;;1.67;;
22634;SDS011;11484;50.858;4.384;2022-10-23T04:07:18;5.45;;;1.90;;
22634;SDS011;11484;50.858;4.384;2022-10-23T04:09:44;5.15;;;2.00;;
22634;SDS011;11484;50.858;4.384;2022-10-23T04:12:09;4.93;;;1.80;;
22634;SDS011;11484;50.858;4.384;2022-10-23T04:14:35;6.18;;;2.05;;
22634;SDS011;11484;50.858;4.384;2022-10-23T04:17:01;4.25;;;2.05;;
22634;SDS011;11484;50.858;4.384;2022-10-23T04:19:26;4.03;;;2.00;;
22634;SDS011;11484;50.858;4.384;2022-10-23T04:21:52;5.93;;;1.83;;
22634;SDS011;11484;50.858;4.384;2022-10-23T04:24:18;7.72;;;2.22;;
22634;SDS011;11484;50.858;4.384;2022-10-23T04:26:43;5.82;;;1.88;;
22634;SDS011;11484;50.858;4.384;2022-10-23T04:29:09;3.97;;;1.83;;
22634;SDS011;11484;50.858;4.384;2022-10-23T04:31:35;4.72;;;2.17;;
22634;SDS011;11484;50.858;4.384;2022-10-23T04:34:01;7.85;;;2.35;;
22634;SDS011;11484;50.858;4.384;2022-10-23T04:36:26;5.07;;;2.38;;
22634;SDS011;11484;50.858;4.384;2022-10-23T04:38:52;8.65;;;2.17;;
22634;SDS011;11484;50.858;4.384;2022-10-23T04:41:18;4.25;;;2.25;;
22634;SDS011;11484;50.858;4.384;2022-10-23T04:43:44;3.17;;;1.92;;
22634;SDS011;11484;50.858;4.384;2022-10-23T04:46:09;5.68;;;2.63;;
22634;SDS011;11484;50.858;4.384;2022-10-23T04:48:35;7.13;;;2.13;;
22634;SDS011;11484;50.858;4.384;2022-10-23T04:51:03;4.78;;;2.10;;
22634;SDS011;11484;50.858;4.384;2022-10-23T04:53:29;3.50;;;2.03;;
22634;SDS011;11484;50.858;4.384;2022-10-23T04:55:56;4.00;;;2.30;;
22634;SDS011;11484;50.858;4.384;2022-10-23T04:58:23;5.28;;;2.33;;
22634;SDS011;11484;50.858;4.384;2022-10-23T05:00:50;4.75;;;2.38;;
22634;SDS011;11484;50.858;4.384;2022-10-23T05:03:17;4.35;;;2.20;;
22634;SDS011;11484;50.858;4.384;2022-10-23T05:05:44;4.63;;;2.03;;
22634;SDS011;11484;50.858;4.384;2022-10-23T05:08:10;7.22;;;2.40;;
22634;SDS011;11484;50.858;4.384;2022-10-23T05:10:36;4.65;;;2.10;;
22634;SDS011;11484;50.858;4.384;2022-10-23T05:13:02;5.40;;;2.33;;
22634;SDS011;11484;50.858;4.384;2022-10-23T05:15:28;5.60;;;2.40;;
22634;SDS011;11484;50.858;4.384;2022-10-23T05:17:55;4.78;;;2.30;;
22634;SDS011;11484;50.858;4.384;2022-10-23T05:20:32;6.18;;;2.28;;
22634;SDS011;11484;50.858;4.384;2022-10-23T05:23:00;3.90;;;2.40;;
22634;SDS011;11484;50.858;4.384;2022-10-23T05:25:27;5.32;;;2.30;;
22634;SDS011;11484;50.858;4.384;2022-10-23T05:27:54;4.47;;;2.20;;
22634;SDS011;11484;50.858;4.384;2022-10-23T05:30:20;4.93;;;2.22;;
22634;SDS011;11484;50.858;4.384;2022-10-23T05:32:46;6.38;;;2.30;;
22634;SDS011;11484;50.858;4.384;2022-10-23T05:35:12;3.70;;;2.38;;
22634;SDS011;11484;50.858;4.384;2022-10-23T05:37:42;4.43;;;2.17;;
22634;SDS011;11484;50.858;4.384;2022-10-23T05:40:11;6.13;;;2.65;;
22634;SDS011;11484;50.858;4.384;2022-10-23T05:42:37;5.03;;;2.15;;
22634;SDS011;11484;50.858;4.384;2022-10-23T05:45:03;5.00;;;2.10;;
22634;SDS011;11484;50.858;4.384;2022-10-23T05:47:29;5.45;;;2.28;;
22634;SDS011;11484;50.858;4.384;2022-10-23T05:49:55;7.68;;;1.95;;
22634;SDS011;11484;50.858;4.384;2022-10-23T05:52:21;6.35;;;2.13;;
22634;SDS011;11484;50.858;4.384;2022-10-23T05:54:47;5.85;;;2.25;;
22634;SDS011;11484;50.858;4.384;2022-10-23T05:57:15;6.35;;;2.28;;
22634;SDS011;11484;50.858;4.384;2022-10-23T05:59:41;7.72;;;2.17;;
22634;SDS011;11484;50.858;4.384;2022-10-23T06:02:07;3.53;;;2.08;;
22634;SDS011;11484;50.858;4.384;2022-10-23T06:04:33;7.28;;;2.90;;
22634;SDS011;11484;50.858;4.384;2022-10-23T06:06:59;3.85;;;2.17;;
22634;SDS011;11484;50.858;4.384;2022-10-23T06:09:25;5.55;;;2.15;;
22634;SDS011;11484;50.858;4.384;2022-10-23T06:11:51;5.07;;;2.08;;
22634;SDS011;11484;50.858;4.384;2022-10-23T06:14:17;3.78;;;2.13;;
22634;SDS011;11484;50.858;4.384;2022-10-23T06:16:43;5.32;;;1.77;;
22634;SDS011;11484;50.858;4.384;2022-10-23T06:19:09;3.97;;;1.60;;
22634;SDS011;11484;50.858;4.384;2022-10-23T06:21:36;6.95;;;2.15;;
22634;SDS011;11484;50.858;4.384;2022-10-23T06:24:02;5.75;;;2.13;;
22634;SDS011;11484;50.858;4.384;2022-10-23T06:26:29;4.88;;;1.70;;
22634;SDS011;11484;50.858;4.384;2022-10-23T06:28:55;5.43;;;2.10;;
22634;SDS011;11484;50.858;4.384;2022-10-23T06:31:20;5.28;;;1.95;;
22634;SDS011;11484;50.858;4.384;2022-10-23T06:33:52;5.55;;;2.20;;
22634;SDS011;11484;50.858;4.384;2022-10-23T06:36:18;4.50;;;2.13;;
22634;SDS011;11484;50.858;4.384;2022-10-23T06:38:44;4.72;;;1.90;;
22634;SDS011;11484;50.858;4.384;2022-10-23T06:41:11;5.47;;;1.70;;
22634;SDS011;11484;50.858;4.384;2022-10-23T06:43:38;4.88;;;2.00;;
22634;SDS011;11484;50.858;4.384;2022-10-23T06:46:04;4.65;;;1.92;;
22634;SDS011;11484;50.858;4.384;2022-10-23T06:48:31;4.28;;;1.80;;
22634;SDS011;11484;50.858;4.384;2022-10-23T06:50:57;3.30;;;1.58;;
22634;SDS011;11484;50.858;4.384;2022-10-23T06:53:23;3.67;;;1.90;;
22634;SDS011;11484;50.858;4.384;2022-10-23T06:55:49;4.45;;;2.17;;
22634;SDS011;11484;50.858;4.384;2022-10-23T06:58:16;8.38;;;1.80;;
22634;SDS011;11484;50.858;4.384;2022-10-23T07:00:42;3.00;;;1.88;;
22634;SDS011;11484;50.858;4.384;2022-10-23T07:03:08;5.43;;;1.90;;
22634;SDS011;11484;50.858;4.384;2022-10-23T07:05:34;3.97;;;1.90;;
22634;SDS011;11484;50.858;4.384;2022-10-23T07:08:00;4.13;;;2.00;;
22634;SDS011;11484;50.858;4.384;2022-10-23T07:10:28;5.75;;;1.88;;
22634;SDS011;11484;50.858;4.384;2022-10-23T07:12:53;2.00;;;1.58;;
22634;SDS011;11484;50.858;4.384;2022-10-23T07:15:24;2.85;;;1.60;;
22634;SDS011;11484;50.858;4.384;2022-10-23T07:17:51;4.20;;;1.70;;
22634;SDS011;11484;50.858;4.384;2022-10-23T07:20:17;4.22;;;1.73;;
22634;SDS011;11484;50.858;4.384;2022-10-23T07:22:43;4.00;;;1.98;;
22634;SDS011;11484;50.858;4.384;2022-10-23T07:25:14;6.15;;;1.90;;
22634;SDS011;11484;50.858;4.384;2022-10-23T07:27:39;2.78;;;1.70;;
22634;SDS011;11484;50.858;4.384;2022-10-23T07:30:05;3.78;;;1.83;;
22634;SDS011;11484;50.858;4.384;2022-10-23T07:32:31;5.53;;;1.77;;
22634;SDS011;11484;50.858;4.384;2022-10-23T07:34:57;3.33;;;1.83;;
22634;SDS011;11484;50.858;4.384;2022-10-23T07:37:23;4.70;;;1.65;;
22634;SDS011;11484;50.858;4.384;2022-10-23T07:39:49;4.97;;;1.80;;
22634;SDS011;11484;50.858;4.384;2022-10-23T07:42:15;5.78;;;1.98;;
22634;SDS011;11484;50.858;4.384;2022-10-23T07:44:40;5.75;;;2.17;;
22634;SDS011;11484;50.858;4.384;2022-10-23T07:47:06;4.53;;;1.50;;
22634;SDS011;11484;50.858;4.384;2022-10-23T07:49:32;3.83;;;1.50;;
22634;SDS011;11484;50.858;4.384;2022-10-23T07:51:57;3.53;;;1.70;;
22634;SDS011;11484;50.858;4.384;2022-10-23T07:54:23;4.10;;;1.80;;
22634;SDS011;11484;50.858;4.384;2022-10-23T07:56:49;3.55;;;1.65;;
22634;SDS011;11484;50.858;4.384;2022-10-23T07:59:14;2.42;;;1.40;;
22634;SDS011;11484;50.858;4.384;2022-10-23T08:01:40;6.28;;;2.13;;
22634;SDS011;11484;50.858;4.384;2022-10-23T08:04:07;5.07;;;1.80;;
22634;SDS011;11484;50.858;4.384;2022-10-23T08:06:34;6.13;;;1.80;;
22634;SDS011;11484;50.858;4.384;2022-10-23T08:09:00;4.38;;;1.63;;
22634;SDS011;11484;50.858;4.384;2022-10-23T08:11:26;5.05;;;1.63;;
22634;SDS011;11484;50.858;4.384;2022-10-23T08:13:55;5.38;;;2.17;;
22634;SDS011;11484;50.858;4.384;2022-10-23T08:16:22;4.45;;;1.90;;
22634;SDS011;11484;50.858;4.384;2022-10-23T08:18:49;9.07;;;2.08;;
22634;SDS011;11484;50.858;4.384;2022-10-23T08:21:15;9.18;;;2.00;;
22634;SDS011;11484;50.858;4.384;2022-10-23T08:23:41;4.82;;;2.20;;
22634;SDS011;11484;50.858;4.384;2022-10-23T08:26:08;6.43;;;2.00;;
22634;SDS011;11484;50.858;4.384;2022-10-23T08:28:34;3.80;;;1.80;;
22634;SDS011;11484;50.858;4.384;2022-10-23T08:31:06;5.40;;;2.53;;
22634;SDS011;11484;50.858;4.384;2022-10-23T08:33:34;5.75;;;2.00;;
22634;SDS011;11484;50.858;4.384;2022-10-23T08:36:00;3.65;;;1.83;;
22634;SDS011;11484;50.858;4.384;2022-10-23T08:38:25;4.35;;;1.75;;
22634;SDS011;11484;50.858;4.384;2022-10-23T08:40:51;5.05;;;2.60;;
22634;SDS011;11484;50.858;4.384;2022-10-23T08:43:19;3.72;;;1.92;;
22634;SDS011;11484;50.858;4.384;2022-10-23T08:45:55;4.78;;;2.20;;
22634;SDS011;11484;50.858;4.384;2022-10-23T08:48:47;5.80;;;2.22;;
22634;SDS011;11484;50.858;4.384;2022-10-23T08:51:18;6.13;;;2.13;;
22634;SDS011;11484;50.858;4.384;2022-10-23T08:53:51;9.38;;;2.33;;
22634;SDS011;11484;50.858;4.384;2022-10-23T08:56:28;3.92;;;2.17;;
22634;SDS011;11484;50.858;4.384;2022-10-23T08:59:00;5.53;;;2.28;;
22634;SDS011;11484;50.858;4.384;2022-10-23T09:01:32;5.18;;;2.38;;
22634;SDS011;11484;50.858;4.384;2022-10-23T09:03:58;4.90;;;2.83;;
22634;SDS011;11484;50.858;4.384;2022-10-23T09:06:31;7.53;;;3.13;;
22634;SDS011;11484;50.858;4.384;2022-10-23T09:17:09;3.42;;;2.20;;
22634;SDS011;11484;50.858;4.384;2022-10-23T09:19:37;4.47;;;2.60;;
22634;SDS011;11484;50.858;4.384;2022-10-23T09:22:03;4.75;;;2.65;;
22634;SDS011;11484;50.858;4.384;2022-10-23T09:24:29;6.30;;;2.60;;
22634;SDS011;11484;50.858;4.384;2022-10-23T09:26:57;6.50;;;2.58;;
22634;SDS011;11484;50.858;4.384;2022-10-23T09:31:56;6.35;;;2.65;;
22634;SDS011;11484;50.858;4.384;2022-10-23T09:34:27;7.43;;;2.70;;
22634;SDS011;11484;50.858;4.384;2022-10-23T09:36:58;7.93;;;2.80;;
22634;SDS011;11484;50.858;4.384;2022-10-23T09:39:29;4.45;;;2.53;;
22634;SDS011;11484;50.858;4.384;2022-10-23T09:41:57;5.60;;;2.50;;
22634;SDS011;11484;50.858;4.384;2022-10-23T09:44:30;5.95;;;2.50;;
22634;SDS011;11484;50.858;4.384;2022-10-23T09:49:37;7.25;;;2.58;;
22634;SDS011;11484;50.858;4.384;2022-10-23T10:00:13;5.68;;;2.80;;
22634;SDS011;11484;50.858;4.384;2022-10-23T10:03:06;10.43;;;2.80;;
22634;SDS011;11484;50.858;4.384;2022-10-23T10:05:42;7.57;;;2.55;;
22634;SDS011;11484;50.858;4.384;2022-10-23T10:10:46;5.53;;;2.80;;
22634;SDS011;11484;50.858;4.384;2022-10-23T10:21:47;5.55;;;2.95;;
22634;SDS011;11484;50.858;4.384;2022-10-23T10:24:21;5.75;;;3.20;;
22634;SDS011;11484;50.858;4.384;2022-10-23T10:32:36;5.70;;;2.50;;
22634;SDS011;11484;50.858;4.384;2022-10-23T10:49:52;8.98;;;3.00;;
22634;SDS011;11484;50.858;4.384;2022-10-23T10:52:33;4.40;;;2.20;;
22634;SDS011;11484;50.858;4.384;2022-10-23T10:55:14;6.90;;;2.35;;
22634;SDS011;11484;50.858;4.384;2022-10-23T11:00:51;7.63;;;2.45;;
22634;SDS011;11484;50.858;4.384;2022-10-23T11:05:46;9.23;;;2.47;;
22634;SDS011;11484;50.858;4.384;2022-10-23T11:08:18;5.47;;;2.30;;
22634;SDS011;11484;50.858;4.384;2022-10-23T11:10:57;4.93;;;2.20;;
22634;SDS011;11484;50.858;4.384;2022-10-23T11:13:33;6.63;;;2.75;;
22634;SDS011;11484;50.858;4.384;2022-10-23T11:16:03;5.55;;;2.45;;
22634;SDS011;11484;50.858;4.384;2022-10-23T11:18:33;4.32;;;2.60;;
22634;SDS011;11484;50.858;4.384;2022-10-23T11:36:12;5.30;;;2.45;;
22634;SDS011;11484;50.858;4.384;2022-10-23T11:41:22;9.18;;;4.97;;
22634;SDS011;11484;50.858;4.384;2022-10-23T11:43:52;5.32;;;2.55;;
22634;SDS011;11484;50.858;4.384;2022-10-23T11:48:51;6.53;;;2.20;;
22634;SDS011;11484;50.858;4.384;2022-10-23T11:54:05;6.15;;;2.03;;
22634;SDS011;11484;50.858;4.384;2022-10-23T11:56:33;5.20;;;2.00;;
22634;SDS011;11484;50.858;4.384;2022-10-23T11:59:24;4.55;;;1.92;;
22634;SDS011;11484;50.858;4.384;2022-10-23T12:01:54;4.78;;;2.22;;
22634;SDS011;11484;50.858;4.384;2022-10-23T12:04:34;5.20;;;2.22;;
22634;SDS011;11484;50.858;4.384;2022-10-23T12:07:13;4.38;;;1.90;;
22634;SDS011;11484;50.858;4.384;2022-10-23T12:09:51;5.57;;;2.95;;
22634;SDS011;11484;50.858;4.384;2022-10-23T12:14:53;5.03;;;2.40;;
22634;SDS011;11484;50.858;4.384;2022-10-23T12:17:32;4.55;;;2.13;;
22634;SDS011;11484;50.858;4.384;2022-10-23T12:25:48;5.10;;;2.65;;
22634;SDS011;11484;50.858;4.384;2022-10-23T12:28:36;6.75;;;2.25;;
22634;SDS011;11484;50.858;4.384;2022-10-23T12:39:54;6.35;;;3.15;;
22634;SDS011;11484;50.858;4.384;2022-10-23T12:42:25;4.90;;;2.95;;
22634;SDS011;11484;50.858;4.384;2022-10-23T12:44:59;6.47;;;2.65;;
22634;SDS011;11484;50.858;4.384;2022-10-23T12:47:26;5.53;;;2.60;;
22634;SDS011;11484;50.858;4.384;2022-10-23T12:49:56;6.35;;;2.78;;
22634;SDS011;11484;50.858;4.384;2022-10-23T12:52:22;4.28;;;2.70;;
22634;SDS011;11484;50.858;4.384;2022-10-23T12:54:51;7.43;;;3.00;;
22634;SDS011;11484;50.858;4.384;2022-10-23T12:57:23;8.73;;;3.13;;
22634;SDS011;11484;50.858;4.384;2022-10-23T12:59:54;7.07;;;3.05;;
22634;SDS011;11484;50.858;4.384;2022-10-23T13:04:53;6.65;;;3.08;;
22634;SDS011;11484;50.858;4.384;2022-10-23T13:07:25;4.13;;;2.30;;
22634;SDS011;11484;50.858;4.384;2022-10-23T13:09:53;6.13;;;2.88;;
22634;SDS011;11484;50.858;4.384;2022-10-23T13:12:20;5.93;;;3.17;;
22634;SDS011;11484;50.858;4.384;2022-10-23T13:17:58;8.60;;;3.22;;
22634;SDS011;11484;50.858;4.384;2022-10-23T13:20:30;6.97;;;3.05;;
22634;SDS011;11484;50.858;4.384;2022-10-23T13:23:09;8.27;;;3.90;;
22634;SDS011;11484;50.858;4.384;2022-10-23T13:25:41;4.57;;;2.53;;
22634;SDS011;11484;50.858;4.384;2022-10-23T13:30:42;3.85;;;2.00;;
22634;SDS011;11484;50.858;4.384;2022-10-23T13:35:58;5.80;;;2.13;;
22634;SDS011;11484;50.858;4.384;2022-10-23T13:39:03;6.70;;;2.30;;
22634;SDS011;11484;50.858;4.384;2022-10-23T13:41:52;5.28;;;2.30;;
22634;SDS011;11484;50.858;4.384;2022-10-23T13:44:26;5.75;;;2.00;;
22634;SDS011;11484;50.858;4.384;2022-10-23T13:47:03;4.88;;;2.33;;
22634;SDS011;11484;50.858;4.384;2022-10-23T13:49:50;4.25;;;2.05;;
22634;SDS011;11484;50.858;4.384;2022-10-23T13:52:23;7.88;;;2.30;;
22634;SDS011;11484;50.858;4.384;2022-10-23T13:55:22;6.60;;;2.47;;
22634;SDS011;11484;50.858;4.384;2022-10-23T13:58:04;6.68;;;2.05;;
22634;SDS011;11484;50.858;4.384;2022-10-23T14:00:34;4.75;;;2.17;;
22634;SDS011;11484;50.858;4.384;2022-10-23T14:03:04;6.45;;;2.50;;
22634;SDS011;11484;50.858;4.384;2022-10-23T14:05:56;8.27;;;2.20;;
22634;SDS011;11484;50.858;4.384;2022-10-23T14:09:03;4.80;;;2.55;;
22634;SDS011;11484;50.858;4.384;2022-10-23T14:11:30;5.93;;;2.33;;
22634;SDS011;11484;50.858;4.384;2022-10-23T14:13:56;6.30;;;2.35;;
22634;SDS011;11484;50.858;4.384;2022-10-23T14:16:23;7.32;;;2.40;;
22634;SDS011;11484;50.858;4.384;2022-10-23T14:18:49;4.35;;;1.80;;
22634;SDS011;11484;50.858;4.384;2022-10-23T14:21:15;5.13;;;2.30;;
22634;SDS011;11484;50.858;4.384;2022-10-23T14:23:44;5.47;;;2.17;;
22634;SDS011;11484;50.858;4.384;2022-10-23T14:26:12;7.47;;;2.30;;
22634;SDS011;11484;50.858;4.384;2022-10-23T14:28:40;4.97;;;2.55;;
22634;SDS011;11484;50.858;4.384;2022-10-23T14:31:07;5.07;;;2.25;;
22634;SDS011;11484;50.858;4.384;2022-10-23T14:33:37;4.13;;;2.03;;
22634;SDS011;11484;50.858;4.384;2022-10-23T14:36:05;3.72;;;1.98;;
22634;SDS011;11484;50.858;4.384;2022-10-23T14:38:34;8.65;;;4.13;;
22634;SDS011;11484;50.858;4.384;2022-10-23T14:41:00;6.78;;;2.70;;
22634;SDS011;11484;50.858;4.384;2022-10-23T14:43:27;5.88;;;2.45;;
22634;SDS011;11484;50.858;4.384;2022-10-23T14:45:52;6.63;;;2.35;;
22634;SDS011;11484;50.858;4.384;2022-10-23T14:48:18;9.35;;;2.88;;
22634;SDS011;11484;50.858;4.384;2022-10-23T14:50:45;9.43;;;2.58;;
22634;SDS011;11484;50.858;4.384;2022-10-23T14:53:12;8.45;;;4.18;;
22634;SDS011;11484;50.858;4.384;2022-10-23T14:55:38;7.05;;;2.80;;
22634;SDS011;11484;50.858;4.384;2022-10-23T14:58:04;7.55;;;2.95;;
22634;SDS011;11484;50.858;4.384;2022-10-23T15:00:30;10.35;;;2.92;;
22634;SDS011;11484;50.858;4.384;2022-10-23T15:02:55;8.45;;;3.00;;
22634;SDS011;11484;50.858;4.384;2022-10-23T15:05:21;7.72;;;2.78;;
22634;SDS011;11484;50.858;4.384;2022-10-23T15:07:47;9.77;;;3.47;;
22634;SDS011;11484;50.858;4.384;2022-10-23T15:10:13;5.63;;;2.95;;
22634;SDS011;11484;50.858;4.384;2022-10-23T15:12:39;7.85;;;3.10;;
22634;SDS011;11484;50.858;4.384;2022-10-23T15:15:05;8.80;;;3.88;;
22634;SDS011;11484;50.858;4.384;2022-10-23T15:17:32;6.75;;;3.50;;
22634;SDS011;11484;50.858;4.384;2022-10-23T15:19:58;9.32;;;3.20;;
22634;SDS011;11484;50.858;4.384;2022-10-23T15:22:25;8.05;;;3.22;;
22634;SDS011;11484;50.858;4.384;2022-10-23T15:24:51;7.18;;;2.85;;
22634;SDS011;11484;50.858;4.384;2022-10-23T15:27:17;9.60;;;3.42;;
22634;SDS011;11484;50.858;4.384;2022-10-23T15:29:43;8.35;;;3.25;;
22634;SDS011;11484;50.858;4.384;2022-10-23T15:32:09;6.80;;;2.80;;
22634;SDS011;11484;50.858;4.384;2022-10-23T15:34:36;5.38;;;2.85;;
22634;SDS011;11484;50.858;4.384;2022-10-23T15:37:03;7.28;;;2.80;;
22634;SDS011;11484;50.858;4.384;2022-10-23T15:39:29;6.97;;;3.10;;
22634;SDS011;11484;50.858;4.384;2022-10-23T15:42:00;6.65;;;3.05;;
22634;SDS011;11484;50.858;4.384;2022-10-23T15:44:28;7.15;;;3.10;;
22634;SDS011;11484;50.858;4.384;2022-10-23T15:46:55;7.68;;;4.07;;
22634;SDS011;11484;50.858;4.384;2022-10-23T15:49:21;6.05;;;3.05;;
22634;SDS011;11484;50.858;4.384;2022-10-23T15:51:49;6.10;;;3.08;;
22634;SDS011;11484;50.858;4.384;2022-10-23T15:54:15;8.02;;;2.58;;
22634;SDS011;11484;50.858;4.384;2022-10-23T15:56:47;5.85;;;2.58;;
22634;SDS011;11484;50.858;4.384;2022-10-23T15:59:16;7.35;;;3.00;;
22634;SDS011;11484;50.858;4.384;2022-10-23T16:01:43;6.57;;;3.45;;
22634;SDS011;11484;50.858;4.384;2022-10-23T16:04:08;8.40;;;2.65;;
22634;SDS011;11484;50.858;4.384;2022-10-23T16:06:35;6.35;;;2.67;;
22634;SDS011;11484;50.858;4.384;2022-10-23T16:09:00;5.75;;;2.42;;
22634;SDS011;11484;50.858;4.384;2022-10-23T16:11:28;5.35;;;2.78;;
22634;SDS011;11484;50.858;4.384;2022-10-23T16:13:57;6.40;;;2.72;;
22634;SDS011;11484;50.858;4.384;2022-10-23T16:16:26;8.00;;;2.70;;
22634;SDS011;11484;50.858;4.384;2022-10-23T16:18:52;6.03;;;2.50;;
22634;SDS011;11484;50.858;4.384;2022-10-23T16:21:19;6.45;;;2.78;;
22634;SDS011;11484;50.858;4.384;2022-10-23T16:23:50;6.30;;;2.60;;
22634;SDS011;11484;50.858;4.384;2022-10-23T16:26:16;6.55;;;3.03;;
22634;SDS011;11484;50.858;4.384;2022-10-23T16:28:43;7.80;;;3.30;;
22634;SDS011;11484;50.858;4.384;2022-10-23T16:31:10;9.07;;;3.00;;
22634;SDS011;11484;50.858;4.384;2022-10-23T16:33:37;8.02;;;3.00;;
22634;SDS011;11484;50.858;4.384;2022-10-23T16:36:03;7.35;;;3.08;;
22634;SDS011;11484;50.858;4.384;2022-10-23T16:38:31;9.63;;;5.38;;
22634;SDS011;11484;50.858;4.384;2022-10-23T16:40:57;9.88;;;4.38;;
22634;SDS011;11484;50.858;4.384;2022-10-23T16:43:23;7.45;;;3.78;;
22634;SDS011;11484;50.858;4.384;2022-10-23T16:46:05;6.55;;;3.58;;
22634;SDS011;11484;50.858;4.384;2022-10-23T16:48:35;7.90;;;3.90;;
22634;SDS011;11484;50.858;4.384;2022-10-23T16:51:34;8.75;;;3.75;;
22634;SDS011;11484;50.858;4.384;2022-10-23T16:53:55;8.27;;;3.30;;
22634;SDS011;11484;50.858;4.384;2022-10-23T16:56:22;12.15;;;3.50;;
22634;SDS011;11484;50.858;4.384;2022-10-23T16:58:52;10.88;;;4.80;;
22634;SDS011;11484;50.858;4.384;2022-10-23T17:01:19;6.60;;;3.72;;
22634;SDS011;11484;50.858;4.384;2022-10-23T17:03:47;9.63;;;4.05;;
22634;SDS011;11484;50.858;4.384;2022-10-23T17:06:15;7.75;;;3.80;;
22634;SDS011;11484;50.858;4.384;2022-10-23T17:08:43;8.23;;;3.60;;
22634;SDS011;11484;50.858;4.384;2022-10-23T17:11:10;9.15;;;3.80;;
22634;SDS011;11484;50.858;4.384;2022-10-23T17:13:40;6.55;;;3.08;;
22634;SDS011;11484;50.858;4.384;2022-10-23T17:16:22;9.13;;;3.92;;
22634;SDS011;11484;50.858;4.384;2022-10-23T17:18:50;7.43;;;3.10;;
22634;SDS011;11484;50.858;4.384;2022-10-23T17:21:16;5.55;;;2.75;;